map of FNA home
FNA - Airport
Location
City:  Freetown, Sierra Leone
Name:Lungi International Airport
ICAO:GFLL
IATA:FNA

Details
Type:Airport (Aerodrome, Airfield)
Use:Public/Civil, International (customs port of entry)
Latitude:836'59"N (8.616444)
Longitude:1311'44"W (-13.195488)
Datum:WGS 1984
Elevation:84 ft (26 m)
Variation:6.82W (WMM2015v2 magnetic declination)
0.15 annual change
Runways:1
Longest:10498 × 150 ft (3200 × 45.5 m), paved

Time
Time Zone:UTC+0
Local Time:

Weather
METAR:GFLL 041200Z 31007KT 8000 HZ SCT014 30/24 Q1011
TAF:GFLL 041100Z 0412/0518 30006KT 8000 HZ FEW013
BECMG 0413/0415 28008KT SCT014
FM042000 26007KT NSC
TEMPO 0500/0504 VRB03KT 9999 SKC
TEMPO 0505/0509 13004KT 5000 SCT011
TEMPO 0510/0514 33007KT 8000 HZ SCT013

Related Locations
Nearby:
Farthest:SCZ: 12273 mi / 19751 km
Santa Cruz Islands [Santa Cruz/Graciosa Bay/Luova Airport], TE, SB

Find:

   beyond  
but within

Other Information
Maps:
NOTAMs:
Links:
Sources:

  
  • flag of Sierra Leone
  

Sectional Chart

Flight Planning
at skyvector.com

Satellite Image

Google Maps Satellite view

 

Copyright © 2004-2019 Karl L. Swartz. All rights reserved.
The Great Circle Mapper name and logo are trademarks of the Great Circle Mapper.
All other trademarks mentioned herein belong to their respective owners.
Please see credits for attibutions and further copyright information.

  Follow gcmap on Facebook Follow gcmap on Twitter GCmap on LinkedIn

hCard Microformat

Geo Microformat